sensor_id;sensor_type;location;lat;lon;timestamp;temperature;humidity
14061;DHT22;7105;43.616;1.434;2023-02-18T00:02:13;9.40;99.90
14061;DHT22;7105;43.616;1.434;2023-02-18T00:04:38;9.30;99.90
14061;DHT22;7105;43.616;1.434;2023-02-18T00:07:04;9.30;99.90
14061;DHT22;7105;43.616;1.434;2023-02-18T00:09:30;9.30;99.90
14061;DHT22;7105;43.616;1.434;2023-02-18T00:11:55;9.30;99.90
14061;DHT22;7105;43.616;1.434;2023-02-18T00:14:21;9.20;99.90
14061;DHT22;7105;43.616;1.434;2023-02-18T00:16:47;9.20;99.90
14061;DHT22;7105;43.616;1.434;2023-02-18T00:19:16;9.10;99.90
14061;DHT22;7105;43.616;1.434;2023-02-18T00:21:42;9.10;99.90
14061;DHT22;7105;43.616;1.434;2023-02-18T00:24:09;9.10;99.90
14061;DHT22;7105;43.616;1.434;2023-02-18T00:26:37;9.10;99.90
14061;DHT22;7105;43.616;1.434;2023-02-18T00:29:03;9.10;99.90
14061;DHT22;7105;43.616;1.434;2023-02-18T00:31:31;9.10;99.90
14061;DHT22;7105;43.616;1.434;2023-02-18T00:33:58;9.00;99.90
14061;DHT22;7105;43.616;1.434;2023-02-18T00:36:24;8.90;99.90
14061;DHT22;7105;43.616;1.434;2023-02-18T00:38:56;8.90;99.90
14061;DHT22;7105;43.616;1.434;2023-02-18T00:41:23;8.80;99.90
14061;DHT22;7105;43.616;1.434;2023-02-18T00:43:49;8.90;99.90
14061;DHT22;7105;43.616;1.434;2023-02-18T00:46:15;8.80;99.90
14061;DHT22;7105;43.616;1.434;2023-02-18T00:48:41;8.80;99.90
14061;DHT22;7105;43.616;1.434;2023-02-18T00:51:07;8.80;99.90
14061;DHT22;7105;43.616;1.434;2023-02-18T00:53:33;8.70;99.90
14061;DHT22;7105;43.616;1.434;2023-02-18T00:55:59;8.70;99.90
14061;DHT22;7105;43.616;1.434;2023-02-18T00:58:25;8.60;99.90
14061;DHT22;7105;43.616;1.434;2023-02-18T01:00:52;8.70;99.90
14061;DHT22;7105;43.616;1.434;2023-02-18T01:03:18;8.60;99.90
14061;DHT22;7105;43.616;1.434;2023-02-18T01:05:44;8.60;99.90
14061;DHT22;7105;43.616;1.434;2023-02-18T01:08:11;8.60;99.90
14061;DHT22;7105;43.616;1.434;2023-02-18T01:10:40;8.60;99.90
14061;DHT22;7105;43.616;1.434;2023-02-18T01:13:06;8.50;99.90
14061;DHT22;7105;43.616;1.434;2023-02-18T01:15:32;8.50;99.90
14061;DHT22;7105;43.616;1.434;2023-02-18T01:17:58;8.50;99.90
14061;DHT22;7105;43.616;1.434;2023-02-18T01:20:24;8.40;99.90
14061;DHT22;7105;43.616;1.434;2023-02-18T01:22:49;8.40;99.90
14061;DHT22;7105;43.616;1.434;2023-02-18T01:25:15;8.50;99.90
14061;DHT22;7105;43.616;1.434;2023-02-18T01:27:41;8.50;99.90
14061;DHT22;7105;43.616;1.434;2023-02-18T01:30:09;8.40;99.90
14061;DHT22;7105;43.616;1.434;2023-02-18T01:32:34;8.40;99.90
14061;DHT22;7105;43.616;1.434;2023-02-18T01:35:05;8.40;99.90
14061;DHT22;7105;43.616;1.434;2023-02-18T01:37:34;8.40;99.90
14061;DHT22;7105;43.616;1.434;2023-02-18T01:39:59;8.30;99.90
14061;DHT22;7105;43.616;1.434;2023-02-18T01:42:27;8.30;99.90
14061;DHT22;7105;43.616;1.434;2023-02-18T01:44:53;8.30;99.90
14061;DHT22;7105;43.616;1.434;2023-02-18T01:47:20;8.30;99.90
14061;DHT22;7105;43.616;1.434;2023-02-18T01:49:49;8.40;99.90
14061;DHT22;7105;43.616;1.434;2023-02-18T01:52:23;8.30;99.90
14061;DHT22;7105;43.616;1.434;2023-02-18T01:54:55;8.20;99.90
14061;DHT22;7105;43.616;1.434;2023-02-18T01:57:24;8.20;99.90
14061;DHT22;7105;43.616;1.434;2023-02-18T01:59:55;8.30;99.90
14061;DHT22;7105;43.616;1.434;2023-02-18T02:02:24;8.30;99.90
14061;DHT22;7105;43.616;1.434;2023-02-18T02:04:51;8.20;99.90
14061;DHT22;7105;43.616;1.434;2023-02-18T02:07:18;8.20;99.90
14061;DHT22;7105;43.616;1.434;2023-02-18T02:09:45;8.20;99.90
14061;DHT22;7105;43.616;1.434;2023-02-18T02:12:30;8.10;99.90
14061;DHT22;7105;43.616;1.434;2023-02-18T02:51:08;7.50;99.90
14061;DHT22;7105;43.616;1.434;2023-02-18T02:53:38;7.50;99.90
14061;DHT22;7105;43.616;1.434;2023-02-18T02:56:04;7.50;99.90
14061;DHT22;7105;43.616;1.434;2023-02-18T02:58:30;7.50;99.90
14061;DHT22;7105;43.616;1.434;2023-02-18T03:04:07;7.40;99.90
14061;DHT22;7105;43.616;1.434;2023-02-18T03:06:40;7.40;99.90
14061;DHT22;7105;43.616;1.434;2023-02-18T03:09:31;7.40;99.90
14061;DHT22;7105;43.616;1.434;2023-02-18T03:12:18;7.30;99.90
14061;DHT22;7105;43.616;1.434;2023-02-18T03:20:55;7.30;99.90
14061;DHT22;7105;43.616;1.434;2023-02-18T03:23:27;7.30;99.90
14061;DHT22;7105;43.616;1.434;2023-02-18T03:25:55;7.30;99.90
14061;DHT22;7105;43.616;1.434;2023-02-18T03:28:23;7.30;99.90
14061;DHT22;7105;43.616;1.434;2023-02-18T03:31:10;7.30;99.90
14061;DHT22;7105;43.616;1.434;2023-02-18T03:33:43;7.20;99.90
14061;DHT22;7105;43.616;1.434;2023-02-18T03:36:11;7.20;99.90
14061;DHT22;7105;43.616;1.434;2023-02-18T03:38:41;7.10;99.90
14061;DHT22;7105;43.616;1.434;2023-02-18T03:41:08;7.10;99.90
14061;DHT22;7105;43.616;1.434;2023-02-18T03:43:34;7.20;99.90
14061;DHT22;7105;43.616;1.434;2023-02-18T03:46:01;7.20;99.90
14061;DHT22;7105;43.616;1.434;2023-02-18T03:48:28;7.20;99.90
14061;DHT22;7105;43.616;1.434;2023-02-18T03:50:53;7.10;99.90
14061;DHT22;7105;43.616;1.434;2023-02-18T03:53:19;7.20;99.90
14061;DHT22;7105;43.616;1.434;2023-02-18T03:55:45;7.20;99.90
14061;DHT22;7105;43.616;1.434;2023-02-18T03:58:11;7.10;99.90
14061;DHT22;7105;43.616;1.434;2023-02-18T04:00:36;7.10;99.90
14061;DHT22;7105;43.616;1.434;2023-02-18T04:03:02;7.10;99.90
14061;DHT22;7105;43.616;1.434;2023-02-18T04:05:28;7.10;99.90
14061;DHT22;7105;43.616;1.434;2023-02-18T04:07:53;7.00;99.90
14061;DHT22;7105;43.616;1.434;2023-02-18T04:10:19;7.00;99.90
14061;DHT22;7105;43.616;1.434;2023-02-18T04:12:47;7.00;99.90
14061;DHT22;7105;43.616;1.434;2023-02-18T04:15:13;7.00;99.90
14061;DHT22;7105;43.616;1.434;2023-02-18T04:17:39;7.00;99.90
14061;DHT22;7105;43.616;1.434;2023-02-18T04:20:05;7.00;99.90
14061;DHT22;7105;43.616;1.434;2023-02-18T04:22:31;7.00;99.90
14061;DHT22;7105;43.616;1.434;2023-02-18T04:24:56;7.00;99.90
14061;DHT22;7105;43.616;1.434;2023-02-18T04:27:23;6.90;99.90
14061;DHT22;7105;43.616;1.434;2023-02-18T04:29:49;6.90;99.90
14061;DHT22;7105;43.616;1.434;2023-02-18T04:32:15;6.90;99.90
14061;DHT22;7105;43.616;1.434;2023-02-18T04:34:40;6.90;99.90
14061;DHT22;7105;43.616;1.434;2023-02-18T04:37:06;6.90;99.90
14061;DHT22;7105;43.616;1.434;2023-02-18T04:39:32;6.90;99.90
14061;DHT22;7105;43.616;1.434;2023-02-18T04:41:57;6.90;99.90
14061;DHT22;7105;43.616;1.434;2023-02-18T04:44:23;6.80;99.90
14061;DHT22;7105;43.616;1.434;2023-02-18T04:46:49;6.80;99.90
14061;DHT22;7105;43.616;1.434;2023-02-18T04:49:14;6.80;99.90
14061;DHT22;7105;43.616;1.434;2023-02-18T04:51:40;6.70;99.90
14061;DHT22;7105;43.616;1.434;2023-02-18T04:54:05;6.70;99.90
14061;DHT22;7105;43.616;1.434;2023-02-18T04:56:31;6.70;99.90
14061;DHT22;7105;43.616;1.434;2023-02-18T04:58:57;6.70;99.90
14061;DHT22;7105;43.616;1.434;2023-02-18T05:01:22;6.70;99.90
14061;DHT22;7105;43.616;1.434;2023-02-18T05:03:48;6.60;99.90
14061;DHT22;7105;43.616;1.434;2023-02-18T05:06:14;6.60;99.90
14061;DHT22;7105;43.616;1.434;2023-02-18T05:08:39;6.60;99.90
14061;DHT22;7105;43.616;1.434;2023-02-18T05:11:09;6.50;99.90
14061;DHT22;7105;43.616;1.434;2023-02-18T05:13:37;6.50;99.90
14061;DHT22;7105;43.616;1.434;2023-02-18T05:16:03;6.50;99.90
14061;DHT22;7105;43.616;1.434;2023-02-18T05:18:28;6.60;99.90
14061;DHT22;7105;43.616;1.434;2023-02-18T05:20:54;6.60;99.90
14061;DHT22;7105;43.616;1.434;2023-02-18T05:23:20;6.60;99.90
14061;DHT22;7105;43.616;1.434;2023-02-18T05:25:46;6.50;99.90
14061;DHT22;7105;43.616;1.434;2023-02-18T05:28:11;6.60;99.90
14061;DHT22;7105;43.616;1.434;2023-02-18T05:30:37;6.60;99.90
14061;DHT22;7105;43.616;1.434;2023-02-18T05:33:03;6.50;99.90
14061;DHT22;7105;43.616;1.434;2023-02-18T05:35:29;6.50;99.90
14061;DHT22;7105;43.616;1.434;2023-02-18T05:37:54;6.50;99.90
14061;DHT22;7105;43.616;1.434;2023-02-18T05:40:20;6.40;99.90
14061;DHT22;7105;43.616;1.434;2023-02-18T05:42:46;6.40;99.90
14061;DHT22;7105;43.616;1.434;2023-02-18T05:45:11;6.40;99.90
14061;DHT22;7105;43.616;1.434;2023-02-18T05:47:37;6.40;99.90
14061;DHT22;7105;43.616;1.434;2023-02-18T05:50:03;6.30;99.90
14061;DHT22;7105;43.616;1.434;2023-02-18T05:52:29;6.40;99.90
14061;DHT22;7105;43.616;1.434;2023-02-18T05:54:55;6.40;99.90
14061;DHT22;7105;43.616;1.434;2023-02-18T05:57:20;6.40;99.90
14061;DHT22;7105;43.616;1.434;2023-02-18T05:59:46;6.40;99.90
14061;DHT22;7105;43.616;1.434;2023-02-18T06:02:12;6.50;99.90
14061;DHT22;7105;43.616;1.434;2023-02-18T06:04:38;6.50;99.90
14061;DHT22;7105;43.616;1.434;2023-02-18T06:07:05;6.30;99.90
14061;DHT22;7105;43.616;1.434;2023-02-18T06:09:30;6.30;99.90
14061;DHT22;7105;43.616;1.434;2023-02-18T06:11:56;6.40;99.90
14061;DHT22;7105;43.616;1.434;2023-02-18T06:14:22;6.40;99.90
14061;DHT22;7105;43.616;1.434;2023-02-18T06:16:47;6.40;99.90
14061;DHT22;7105;43.616;1.434;2023-02-18T06:19:13;6.40;99.90
14061;DHT22;7105;43.616;1.434;2023-02-18T06:21:39;6.30;99.90
14061;DHT22;7105;43.616;1.434;2023-02-18T06:24:05;6.30;99.90
14061;DHT22;7105;43.616;1.434;2023-02-18T06:26:30;6.30;99.90
14061;DHT22;7105;43.616;1.434;2023-02-18T06:28:56;6.20;99.90
14061;DHT22;7105;43.616;1.434;2023-02-18T06:31:22;6.20;99.90
14061;DHT22;7105;43.616;1.434;2023-02-18T06:33:47;6.10;99.90
14061;DHT22;7105;43.616;1.434;2023-02-18T06:36:13;6.00;99.90
14061;DHT22;7105;43.616;1.434;2023-02-18T06:38:40;6.10;99.90
14061;DHT22;7105;43.616;1.434;2023-02-18T06:41:07;6.10;99.90
14061;DHT22;7105;43.616;1.434;2023-02-18T06:43:33;6.10;99.90
14061;DHT22;7105;43.616;1.434;2023-02-18T06:45:58;6.10;99.90
14061;DHT22;7105;43.616;1.434;2023-02-18T06:48:24;6.20;99.90
14061;DHT22;7105;43.616;1.434;2023-02-18T06:50:50;6.20;99.90
14061;DHT22;7105;43.616;1.434;2023-02-18T06:53:15;6.30;99.90
14061;DHT22;7105;43.616;1.434;2023-02-18T06:55:42;6.30;99.90
14061;DHT22;7105;43.616;1.434;2023-02-18T06:58:10;6.30;99.90
14061;DHT22;7105;43.616;1.434;2023-02-18T07:00:36;6.40;99.90
14061;DHT22;7105;43.616;1.434;2023-02-18T07:03:03;6.40;99.90
14061;DHT22;7105;43.616;1.434;2023-02-18T07:05:29;6.40;99.90
14061;DHT22;7105;43.616;1.434;2023-02-18T07:07:55;6.40;99.90
14061;DHT22;7105;43.616;1.434;2023-02-18T07:10:21;6.40;99.90
14061;DHT22;7105;43.616;1.434;2023-02-18T07:12:47;6.30;99.90
14061;DHT22;7105;43.616;1.434;2023-02-18T07:15:13;6.40;99.90
14061;DHT22;7105;43.616;1.434;2023-02-18T07:17:42;6.40;99.90
14061;DHT22;7105;43.616;1.434;2023-02-18T07:20:08;6.40;99.90
14061;DHT22;7105;43.616;1.434;2023-02-18T07:22:36;6.40;99.90
14061;DHT22;7105;43.616;1.434;2023-02-18T07:25:02;6.50;99.90
14061;DHT22;7105;43.616;1.434;2023-02-18T07:27:27;6.60;99.90
14061;DHT22;7105;43.616;1.434;2023-02-18T07:29:53;6.60;99.90
14061;DHT22;7105;43.616;1.434;2023-02-18T07:32:19;6.70;99.90
14061;DHT22;7105;43.616;1.434;2023-02-18T07:34:45;6.70;99.90
14061;DHT22;7105;43.616;1.434;2023-02-18T07:37:11;6.60;99.90
14061;DHT22;7105;43.616;1.434;2023-02-18T07:39:41;6.80;99.90
14061;DHT22;7105;43.616;1.434;2023-02-18T07:42:08;6.80;99.90
14061;DHT22;7105;43.616;1.434;2023-02-18T07:44:38;6.80;99.90
14061;DHT22;7105;43.616;1.434;2023-02-18T07:47:05;6.80;99.90
14061;DHT22;7105;43.616;1.434;2023-02-18T07:49:32;6.70;99.90
14061;DHT22;7105;43.616;1.434;2023-02-18T07:51:57;6.90;99.90
14061;DHT22;7105;43.616;1.434;2023-02-18T07:54:23;7.00;99.90
14061;DHT22;7105;43.616;1.434;2023-02-18T07:56:49;7.10;99.90
14061;DHT22;7105;43.616;1.434;2023-02-18T07:59:15;7.00;99.90
14061;DHT22;7105;43.616;1.434;2023-02-18T08:01:40;6.90;99.90
14061;DHT22;7105;43.616;1.434;2023-02-18T08:04:06;6.90;99.90
14061;DHT22;7105;43.616;1.434;2023-02-18T08:06:35;7.00;99.90
14061;DHT22;7105;43.616;1.434;2023-02-18T08:09:01;6.90;99.90
14061;DHT22;7105;43.616;1.434;2023-02-18T08:11:27;7.10;99.90
14061;DHT22;7105;43.616;1.434;2023-02-18T08:13:52;7.50;99.90
14061;DHT22;7105;43.616;1.434;2023-02-18T08:16:20;9.70;99.90
14061;DHT22;7105;43.616;1.434;2023-02-18T08:18:46;15.20;99.90
14061;DHT22;7105;43.616;1.434;2023-02-18T08:21:13;18.40;99.90
14061;DHT22;7105;43.616;1.434;2023-02-18T08:23:39;19.10;99.90
14061;DHT22;7105;43.616;1.434;2023-02-18T08:26:05;18.70;99.90
14061;DHT22;7105;43.616;1.434;2023-02-18T08:28:31;19.10;99.90
14061;DHT22;7105;43.616;1.434;2023-02-18T08:30:57;19.10;99.90
14061;DHT22;7105;43.616;1.434;2023-02-18T08:33:23;19.30;99.90
14061;DHT22;7105;43.616;1.434;2023-02-18T08:35:51;19.80;99.90
14061;DHT22;7105;43.616;1.434;2023-02-18T08:38:18;20.00;99.90
14061;DHT22;7105;43.616;1.434;2023-02-18T08:40:44;20.70;99.90
14061;DHT22;7105;43.616;1.434;2023-02-18T08:43:10;21.70;99.90
14061;DHT22;7105;43.616;1.434;2023-02-18T08:45:37;22.50;99.90
14061;DHT22;7105;43.616;1.434;2023-02-18T08:48:04;22.50;99.90
14061;DHT22;7105;43.616;1.434;2023-02-18T08:50:30;22.80;99.90
14061;DHT22;7105;43.616;1.434;2023-02-18T08:52:56;22.50;99.90
14061;DHT22;7105;43.616;1.434;2023-02-18T08:55:25;22.70;99.90
14061;DHT22;7105;43.616;1.434;2023-02-18T08:57:51;23.20;99.90
14061;DHT22;7105;43.616;1.434;2023-02-18T09:00:17;23.30;99.90
14061;DHT22;7105;43.616;1.434;2023-02-18T09:02:43;22.80;99.90
14061;DHT22;7105;43.616;1.434;2023-02-18T09:05:12;22.80;99.90
14061;DHT22;7105;43.616;1.434;2023-02-18T09:07:41;23.80;99.90
14061;DHT22;7105;43.616;1.434;2023-02-18T09:10:09;23.90;99.90
14061;DHT22;7105;43.616;1.434;2023-02-18T09:12:35;22.80;99.90
14061;DHT22;7105;43.616;1.434;2023-02-18T09:15:01;23.00;99.90
14061;DHT22;7105;43.616;1.434;2023-02-18T09:17:27;23.30;99.90
14061;DHT22;7105;43.616;1.434;2023-02-18T09:19:53;24.20;99.90
14061;DHT22;7105;43.616;1.434;2023-02-18T09:22:19;24.10;99.90
14061;DHT22;7105;43.616;1.434;2023-02-18T09:24:45;23.60;99.90
14061;DHT22;7105;43.616;1.434;2023-02-18T09:27:10;24.00;99.90
14061;DHT22;7105;43.616;1.434;2023-02-18T09:29:38;21.80;99.90
14061;DHT22;7105;43.616;1.434;2023-02-18T09:32:07;23.30;99.90
14061;DHT22;7105;43.616;1.434;2023-02-18T09:34:36;24.20;99.90
14061;DHT22;7105;43.616;1.434;2023-02-18T09:37:02;24.50;99.90
14061;DHT22;7105;43.616;1.434;2023-02-18T09:39:27;19.00;99.90
14061;DHT22;7105;43.616;1.434;2023-02-18T09:41:56;15.70;99.90
14061;DHT22;7105;43.616;1.434;2023-02-18T09:44:25;14.20;99.90
14061;DHT22;7105;43.616;1.434;2023-02-18T09:47:17;13.90;99.90
14061;DHT22;7105;43.616;1.434;2023-02-18T09:49:47;14.10;99.90
14061;DHT22;7105;43.616;1.434;2023-02-18T09:52:19;13.10;99.90
14061;DHT22;7105;43.616;1.434;2023-02-18T09:54:45;12.80;99.90
14061;DHT22;7105;43.616;1.434;2023-02-18T10:00:00;12.10;99.90
14061;DHT22;7105;43.616;1.434;2023-02-18T10:02:27;12.40;99.90
14061;DHT22;7105;43.616;1.434;2023-02-18T10:04:53;12.40;99.90
14061;DHT22;7105;43.616;1.434;2023-02-18T10:07:31;12.20;99.90
14061;DHT22;7105;43.616;1.434;2023-02-18T10:10:02;12.20;99.90
14061;DHT22;7105;43.616;1.434;2023-02-18T10:12:36;12.10;99.90
14061;DHT22;7105;43.616;1.434;2023-02-18T10:15:02;12.10;99.90
14061;DHT22;7105;43.616;1.434;2023-02-18T10:17:30;12.20;99.90
14061;DHT22;7105;43.616;1.434;2023-02-18T10:19:57;12.10;99.90
14061;DHT22;7105;43.616;1.434;2023-02-18T10:22:24;12.20;99.90
14061;DHT22;7105;43.616;1.434;2023-02-18T10:24:57;12.20;99.90
14061;DHT22;7105;43.616;1.434;2023-02-18T10:27:29;12.20;99.90
14061;DHT22;7105;43.616;1.434;2023-02-18T10:32:47;12.40;99.90
14061;DHT22;7105;43.616;1.434;2023-02-18T10:35:39;12.30;99.90
14061;DHT22;7105;43.616;1.434;2023-02-18T10:38:21;12.30;99.90
14061;DHT22;7105;43.616;1.434;2023-02-18T10:41:51;12.50;99.90
14061;DHT22;7105;43.616;1.434;2023-02-18T10:46:36;12.50;99.90
14061;DHT22;7105;43.616;1.434;2023-02-18T10:52:02;12.60;99.90
14061;DHT22;7105;43.616;1.434;2023-02-18T10:57:21;12.70;99.90
14061;DHT22;7105;43.616;1.434;2023-02-18T10:59:58;12.50;99.90
14061;DHT22;7105;43.616;1.434;2023-02-18T11:02:29;12.60;99.90
14061;DHT22;7105;43.616;1.434;2023-02-18T11:04:58;12.50;99.90
14061;DHT22;7105;43.616;1.434;2023-02-18T11:07:30;12.60;99.90
14061;DHT22;7105;43.616;1.434;2023-02-18T11:10:25;12.70;99.90
14061;DHT22;7105;43.616;1.434;2023-02-18T11:13:01;12.80;99.90
14061;DHT22;7105;43.616;1.434;2023-02-18T11:15:28;12.80;99.90
14061;DHT22;7105;43.616;1.434;2023-02-18T11:17:56;12.90;99.90
14061;DHT22;7105;43.616;1.434;2023-02-18T11:25:34;13.10;99.90
14061;DHT22;7105;43.616;1.434;2023-02-18T11:28:06;13.20;99.90
14061;DHT22;7105;43.616;1.434;2023-02-18T11:30:54;13.40;99.90
14061;DHT22;7105;43.616;1.434;2023-02-18T11:35:52;13.60;99.90
14061;DHT22;7105;43.616;1.434;2023-02-18T11:40:56;13.60;99.90
14061;DHT22;7105;43.616;1.434;2023-02-18T11:43:25;13.60;99.90
14061;DHT22;7105;43.616;1.434;2023-02-18T11:46:14;13.70;99.90
14061;DHT22;7105;43.616;1.434;2023-02-18T11:48:40;13.80;99.90
14061;DHT22;7105;43.616;1.434;2023-02-18T11:51:54;13.90;99.90
14061;DHT22;7105;43.616;1.434;2023-02-18T11:54:02;14.00;99.90
14061;DHT22;7105;43.616;1.434;2023-02-18T11:56:34;14.10;99.90
14061;DHT22;7105;43.616;1.434;2023-02-18T11:59:02;14.20;99.90
14061;DHT22;7105;43.616;1.434;2023-02-18T12:01:49;14.20;99.90
14061;DHT22;7105;43.616;1.434;2023-02-18T12:04:18;14.30;99.90
14061;DHT22;7105;43.616;1.434;2023-02-18T12:09:27;14.60;99.90
14061;DHT22;7105;43.616;1.434;2023-02-18T12:12:06;14.70;99.90
14061;DHT22;7105;43.616;1.434;2023-02-18T12:14:36;14.70;99.90
14061;DHT22;7105;43.616;1.434;2023-02-18T12:25:24;14.80;99.90
14061;DHT22;7105;43.616;1.434;2023-02-18T12:28:03;14.80;99.90
14061;DHT22;7105;43.616;1.434;2023-02-18T12:39:05;15.00;99.90
14061;DHT22;7105;43.616;1.434;2023-02-18T12:44:45;15.20;99.90
14061;DHT22;7105;43.616;1.434;2023-02-18T13:14:50;16.10;99.90
14061;DHT22;7105;43.616;1.434;2023-02-18T13:17:24;16.10;99.90
14061;DHT22;7105;43.616;1.434;2023-02-18T13:19:56;16.20;99.90
14061;DHT22;7105;43.616;1.434;2023-02-18T13:22:26;16.20;99.90
14061;DHT22;7105;43.616;1.434;2023-02-18T13:24:54;16.20;99.90
14061;DHT22;7105;43.616;1.434;2023-02-18T13:32:58;16.40;99.90
14061;DHT22;7105;43.616;1.434;2023-02-18T13:40:50;16.50;99.90
14061;DHT22;7105;43.616;1.434;2023-02-18T13:43:29;16.50;99.90
14061;DHT22;7105;43.616;1.434;2023-02-18T13:46:14;16.60;99.90
14061;DHT22;7105;43.616;1.434;2023-02-18T13:51:13;16.70;99.90
14061;DHT22;7105;43.616;1.434;2023-02-18T13:53:42;16.70;99.90
14061;DHT22;7105;43.616;1.434;2023-02-18T13:56:21;16.70;99.90
14061;DHT22;7105;43.616;1.434;2023-02-18T14:01:48;16.90;99.90
14061;DHT22;7105;43.616;1.434;2023-02-18T14:25:54;17.40;99.90
14061;DHT22;7105;43.616;1.434;2023-02-18T14:31:05;17.10;99.90
14061;DHT22;7105;43.616;1.434;2023-02-18T14:41:53;17.30;99.90
14061;DHT22;7105;43.616;1.434;2023-02-18T14:44:59;17.20;99.90
14061;DHT22;7105;43.616;1.434;2023-02-18T14:50:17;17.50;99.90
14061;DHT22;7105;43.616;1.434;2023-02-18T14:52:49;17.60;99.90
14061;DHT22;7105;43.616;1.434;2023-02-18T14:55:25;17.60;99.90
14061;DHT22;7105;43.616;1.434;2023-02-18T14:57:55;17.50;99.90
14061;DHT22;7105;43.616;1.434;2023-02-18T15:00:25;17.70;99.90
14061;DHT22;7105;43.616;1.434;2023-02-18T15:02:54;17.60;99.90
14061;DHT22;7105;43.616;1.434;2023-02-18T15:05:25;17.50;99.90
14061;DHT22;7105;43.616;1.434;2023-02-18T15:08:05;17.50;99.90
14061;DHT22;7105;43.616;1.434;2023-02-18T15:10:57;17.50;99.90
14061;DHT22;7105;43.616;1.434;2023-02-18T15:13:30;17.60;99.90
14061;DHT22;7105;43.616;1.434;2023-02-18T15:16:05;17.60;99.90
14061;DHT22;7105;43.616;1.434;2023-02-18T15:18:41;17.70;99.90
14061;DHT22;7105;43.616;1.434;2023-02-18T15:21:19;17.60;99.90
14061;DHT22;7105;43.616;1.434;2023-02-18T15:23:45;17.50;99.90
14061;DHT22;7105;43.616;1.434;2023-02-18T15:26:15;17.70;99.90
14061;DHT22;7105;43.616;1.434;2023-02-18T15:28:52;17.60;99.90
14061;DHT22;7105;43.616;1.434;2023-02-18T15:31:24;17.60;99.90
14061;DHT22;7105;43.616;1.434;2023-02-18T15:33:51;17.60;99.90
14061;DHT22;7105;43.616;1.434;2023-02-18T15:36:17;17.70;99.90
14061;DHT22;7105;43.616;1.434;2023-02-18T15:38:42;17.70;99.90
14061;DHT22;7105;43.616;1.434;2023-02-18T15:41:15;17.70;99.90
14061;DHT22;7105;43.616;1.434;2023-02-18T15:44:00;17.70;99.90
14061;DHT22;7105;43.616;1.434;2023-02-18T15:46:27;17.60;99.90
14061;DHT22;7105;43.616;1.434;2023-02-18T15:48:54;17.60;99.90
14061;DHT22;7105;43.616;1.434;2023-02-18T15:51:25;17.60;99.90
14061;DHT22;7105;43.616;1.434;2023-02-18T15:53:55;17.60;99.90
14061;DHT22;7105;43.616;1.434;2023-02-18T15:56:29;17.60;99.90
14061;DHT22;7105;43.616;1.434;2023-02-18T15:59:12;17.60;99.90
14061;DHT22;7105;43.616;1.434;2023-02-18T16:01:40;17.60;99.90
14061;DHT22;7105;43.616;1.434;2023-02-18T16:04:06;17.60;99.90
14061;DHT22;7105;43.616;1.434;2023-02-18T16:06:37;17.70;99.90
14061;DHT22;7105;43.616;1.434;2023-02-18T16:09:13;17.60;99.90
14061;DHT22;7105;43.616;1.434;2023-02-18T16:11:46;17.50;99.90
14061;DHT22;7105;43.616;1.434;2023-02-18T16:14:44;17.50;99.90
14061;DHT22;7105;43.616;1.434;2023-02-18T16:22:41;17.30;99.90
14061;DHT22;7105;43.616;1.434;2023-02-18T16:25:21;17.30;99.90
14061;DHT22;7105;43.616;1.434;2023-02-18T16:27:49;17.30;99.90
14061;DHT22;7105;43.616;1.434;2023-02-18T16:30:25;17.30;99.90
14061;DHT22;7105;43.616;1.434;2023-02-18T16:32:54;17.30;99.90
14061;DHT22;7105;43.616;1.434;2023-02-18T16:35:21;17.30;99.90
14061;DHT22;7105;43.616;1.434;2023-02-18T16:37:47;17.10;99.90
14061;DHT22;7105;43.616;1.434;2023-02-18T16:40:37;17.10;99.90
14061;DHT22;7105;43.616;1.434;2023-02-18T16:43:20;17.10;99.90
14061;DHT22;7105;43.616;1.434;2023-02-18T16:45:51;17.10;99.90
14061;DHT22;7105;43.616;1.434;2023-02-18T16:48:27;17.00;99.90
14061;DHT22;7105;43.616;1.434;2023-02-18T16:50:54;16.90;99.90
14061;DHT22;7105;43.616;1.434;2023-02-18T16:53:20;16.70;99.90
14061;DHT22;7105;43.616;1.434;2023-02-18T16:55:48;16.70;99.90
14061;DHT22;7105;43.616;1.434;2023-02-18T16:58:15;16.60;99.90
14061;DHT22;7105;43.616;1.434;2023-02-18T17:00:43;16.70;99.90
14061;DHT22;7105;43.616;1.434;2023-02-18T17:03:09;16.70;99.90
14061;DHT22;7105;43.616;1.434;2023-02-18T17:05:35;16.80;99.90
14061;DHT22;7105;43.616;1.434;2023-02-18T17:08:22;16.70;99.90
14061;DHT22;7105;43.616;1.434;2023-02-18T17:10:49;16.60;99.90
14061;DHT22;7105;43.616;1.434;2023-02-18T17:13:17;16.50;99.90
14061;DHT22;7105;43.616;1.434;2023-02-18T17:15:44;16.40;99.90
14061;DHT22;7105;43.616;1.434;2023-02-18T17:18:10;16.30;99.90
14061;DHT22;7105;43.616;1.434;2023-02-18T17:20:37;16.30;99.90
14061;DHT22;7105;43.616;1.434;2023-02-18T17:23:02;16.20;99.90
14061;DHT22;7105;43.616;1.434;2023-02-18T17:25:34;16.10;99.90
14061;DHT22;7105;43.616;1.434;2023-02-18T17:28:01;15.90;99.90
14061;DHT22;7105;43.616;1.434;2023-02-18T17:30:31;15.80;99.90
14061;DHT22;7105;43.616;1.434;2023-02-18T17:32:59;15.70;99.90
14061;DHT22;7105;43.616;1.434;2023-02-18T17:35:25;15.60;99.90
14061;DHT22;7105;43.616;1.434;2023-02-18T17:37:51;15.60;99.90
14061;DHT22;7105;43.616;1.434;2023-02-18T17:40:20;15.50;99.90
14061;DHT22;7105;43.616;1.434;2023-02-18T17:42:46;15.40;99.90
14061;DHT22;7105;43.616;1.434;2023-02-18T17:47:50;15.50;99.90
14061;DHT22;7105;43.616;1.434;2023-02-18T17:50:16;15.30;99.90
14061;DHT22;7105;43.616;1.434;2023-02-18T17:52:43;15.20;99.90
14061;DHT22;7105;43.616;1.434;2023-02-18T17:55:17;15.10;99.90
14061;DHT22;7105;43.616;1.434;2023-02-18T17:57:43;15.00;99.90
14061;DHT22;7105;43.616;1.434;2023-02-18T18:00:11;15.10;99.90
14061;DHT22;7105;43.616;1.434;2023-02-18T18:02:38;15.00;99.90
14061;DHT22;7105;43.616;1.434;2023-02-18T18:05:04;14.80;99.90
14061;DHT22;7105;43.616;1.434;2023-02-18T18:07:30;14.70;99.90
14061;DHT22;7105;43.616;1.434;2023-02-18T18:09:55;14.70;99.90
14061;DHT22;7105;43.616;1.434;2023-02-18T18:12:22;14.70;99.90
14061;DHT22;7105;43.616;1.434;2023-02-18T18:14:47;14.80;99.90
14061;DHT22;7105;43.616;1.434;2023-02-18T18:17:13;14.70;99.90
14061;DHT22;7105;43.616;1.434;2023-02-18T18:19:39;14.60;99.90
14061;DHT22;7105;43.616;1.434;2023-02-18T18:22:06;14.50;99.90
14061;DHT22;7105;43.616;1.434;2023-02-18T18:24:32;14.30;99.90
14061;DHT22;7105;43.616;1.434;2023-02-18T18:26:58;14.40;99.90
14061;DHT22;7105;43.616;1.434;2023-02-18T18:29:24;14.60;99.90
14061;DHT22;7105;43.616;1.434;2023-02-18T18:31:50;14.30;99.90
14061;DHT22;7105;43.616;1.434;2023-02-18T18:34:15;14.20;99.90
14061;DHT22;7105;43.616;1.434;2023-02-18T18:36:41;14.10;99.90
14061;DHT22;7105;43.616;1.434;2023-02-18T18:39:08;14.50;99.90
14061;DHT22;7105;43.616;1.434;2023-02-18T18:41:33;14.30;99.90
14061;DHT22;7105;43.616;1.434;2023-02-18T18:43:59;14.10;99.90
14061;DHT22;7105;43.616;1.434;2023-02-18T18:46:25;13.90;99.90
14061;DHT22;7105;43.616;1.434;2023-02-18T18:48:50;14.10;99.90
14061;DHT22;7105;43.616;1.434;2023-02-18T18:51:24;14.10;99.90
14061;DHT22;7105;43.616;1.434;2023-02-18T18:53:51;13.80;99.90
14061;DHT22;7105;43.616;1.434;2023-02-18T18:56:17;14.00;99.90
14061;DHT22;7105;43.616;1.434;2023-02-18T18:58:43;14.30;99.90
14061;DHT22;7105;43.616;1.434;2023-02-18T19:01:20;14.00;99.90
14061;DHT22;7105;43.616;1.434;2023-02-18T19:03:47;13.80;99.90